Terminal Aerodrome Forecast
Issued by NWS Tulsa, OK

Home | Current Version | Previous Version | Text Only | Print | Product List | Glossary On
Versions: 1 2 3 4 5 6 7 8 9 10 11 12
075
FTUS44 KTSA 200520
TAFFSM
TAF
KFSM 200520Z 2006/2106 07005KT P6SM BKN030 WS020/21040KT
     FM200900 07005KT P6SM BKN025 WS020/21040KT
     FM201700 12010KT P6SM BKN025
     FM202100 15010KT P6SM BKN040
     FM210200 10006KT P6SM BKN025=

USA.gov is the U.S. government's official web portal to all federal, state and local government web resources and services.